Weather observations for the past three days for
Jackson, Carroll Airport
Metric (Imperial)
Date Time (edt) Wind (kph) Vis. (km) Weather Sky Cond. Temperature (ºC) Relative Humidity Wind Chill (°C) Heat Index (°C) Pressure Precipitation (cm)
Air Dwpt 6 hour altimeter (cm) sea level (mb) 1 hr 3 hr 6 hr
Max. Min.
10 07:53 Vrbl 6 16.09 Fair CLR 13.9 9.4 14.4 11.7 74% 76.17 1014.9
10 06:53 SW 6 16.09 Partly Cloudy SCT055 12.2 8.9 80% 76.12 1014.3
10 05:53 Calm 16.09 Fair CLR 12.2 9.4 83% 76.07 1013.6
10 04:53 S 6 16.09 Fair CLR 12.2 9.4 83% 76.02 1012.8
10 03:53 SW 6 16.09 Fair CLR 12.8 9.4 80% 76 1012.5
10 02:53 S 6 16.09 Fair CLR 12.8 10 83% 76 1012.5
10 01:53 Vrbl 6 16.09 Fair CLR 13.9 10 17.8 13.3 78% 76 1012.5
10 00:53 Calm 16.09 Fair CLR 13.9 10 78% 76.02 1012.6
09 23:53 Calm 16.09 Fair CLR 15.6 10 70% 76 1012.5
09 22:53 Vrbl 6 16.09 NULL NULL 16.1 10 67% 76 1012.4
09 21:53 Calm 16.09 NULL NULL 16.7 10.6 67% 75.97 1012.0
09 20:53 Calm 16.09 Fair CLR 17.2 10.6 65% 75.9 1011.2
09 19:53 Calm 16.09 Fair CLR 17.8 11.1 20 17.2 65% 75.87 1010.9
09 18:53 Vrbl 6 16.09 A Few Clouds FEW039 19.4 11.7 61% 75.84 1010.3
09 17:53 Vrbl 6 16.09 A Few Clouds FEW033 20 11.7 59% 75.84 1010.3
09 16:53 Vrbl 6 16.09 Mostly Cloudy SCT032 BKN060 20 12.2 61% 75.87 1010.7
09 15:53 Calm 16.09 Overcast BKN032 BKN039 OVC065 18.3 12.2 68% 75.87 1010.8
09 14:53 Calm 16.09 Overcast BKN027 BKN034 OVC044 17.2 11.7 70% 75.84 1010.6
09 13:53 Calm 16.09 Overcast SCT034 OVC046 17.2 11.1 17.2 12.2 68% 75.84 1010.5
09 12:53 Vrbl 7 16.09 Overcast FEW025 OVC055 16.7 10.6 67% 75.87 1011.0
09 11:53 Vrbl 9 16.09 NULL NULL 15.6 9.4 67% 75.9 1011.0
09 10:53 S 7 16.09 Overcast FEW055 BKN075 OVC110 15.6 9.4 67% 75.82 1010.1
09 09:53 Vrbl 7 16.09 Overcast SCT047 SCT065 OVC110 13.3 7.8 70% 75.82 1010.3
09 08:53 Calm 16.09 Mostly Cloudy BKN110 12.8 7.2 69% 75.82 1010.0
09 07:53 Calm 16.09 Fair CLR 12.2 6.1 12.8 11.7 67% 75.79 1009.7
09 06:53 Vrbl 6 16.09 Fair CLR 11.7 5 64% 75.79 1009.7
09 05:53 S 6 16.09 Fair CLR 11.7 3.9 59% 75.82 1009.9
09 04:53 Vrbl 6 16.09 A Few Clouds FEW110 12.2 3.3 55% 75.82 1009.9
09 03:53 Calm 16.09 Fair CLR 12.2 3.3 55% 75.82 1010.0
09 02:53 SW 6 16.09 Fair CLR 12.2 3.3 55% 75.82 1010.1
09 01:53 Calm 16.09 Fair CLR 12.8 2.8 17.8 12.2 51% 75.84 1010.4
09 00:53 Vrbl 6 16.09 Fair CLR 13.3 2.2 47% 75.87 1010.6
08 23:53 Vrbl 6 16.09 Fair CLR 14.4 2.2 44% 75.87 1010.7
08 22:53 S 6 16.09 NULL NULL 15 2.2 42% 75.9 1011.0
08 21:53 S 6 16.09 Fair CLR 16.1 2.2 39% 75.92 1011.6
08 20:53 Calm 16.09 Fair CLR 17.2 1.1 34% 75.9 1011.4
08 19:53 Calm 16.09 Fair CLR 17.8 1.7 20.6 17.8 34% 75.92 1011.7
08 18:53 Vrbl 9 16.09 Fair CLR 19.4 2.2 32% 75.92 1011.8
08 17:53 Vrbl 9 16.09 Fair CLR 20 0.6 27% 75.95 1011.9
08 16:53 Vrbl 9 16.09 Fair CLR 20.6 2.8 31% 75.95 1011.9
08 15:53 S 15 16.09 Fair CLR 19.4 1.7 31% 76.02 1012.8
08 14:53 S 13 16.09 Fair CLR 18.9 1.1 30% 76.1 1014.0
08 13:53 S 11 16.09 Fair CLR 18.3 2.8 18.9 6.1 36% 76.17 1015.1
08 12:53 Calm 16.09 Fair CLR 17.2 2.2 37% 76.25 1016.0
08 11:53 S 9 0.00 NULL NULL 15.6 3.9 46% 76.33 1017.0
08 10:53 Vrbl 9 16.09 Fair CLR 13.9 3.3 49% 76.35 1017.3
08 09:53 S 6 16.09 Fair CLR 10.6 3.9 64% 76.33 1017.2
08 08:53 S 6 16.09 Fair CLR 7.8 2.8 71% 76.3 1017.2
08 07:53 Calm 16.09 Fair CLR 6.1 2.8 8.3 4.4 80% 76.3 1017.1
08 06:53 Calm 16.09 Fair CLR 5 2.8 86% 76.25 1016.4
08 05:53 S 6 16.09 Fair CLR 5 2.8 86% 76.23 1016.1
08 04:53 Calm 16.09 Fair CLR 6.7 1.7 71% 76.23 1015.9
08 03:53 Calm 16.09 Fair CLR 6.7 2.2 73% 76.2 1015.7
08 02:53 Calm 16.09 Fair CLR 7.2 2.8 74% 76.23 1015.9
08 01:53 Calm 16.09 Fair CLR 8.3 1.1 13.9 7.2 61% 76.23 1016.0
08 00:53 Calm 16.09 Fair CLR 8.9 0 54% 76.23 1016.0
07 23:53 NW 6 16.09 Fair CLR 10.6 -1.1 45% 76.2 1015.7
07 22:53 NW 6 16.09 Fair CLR 11.7 -1.1 41% 76.2 1015.7
07 21:53 NW 6 16.09 Fair CLR 11.7 0 45% 76.17 1015.1
07 20:53 Calm 16.09 Fair CLR 12.2 0.6 45% 76.1 1014.4
07 19:53 NW 9 16.09 Fair CLR 13.9 0 17.2 13.9 39% 76.07 1014.0
07 18:53 NW 9 16.09 Fair CLR 15 0 36% 76.05 1013.6
07 17:53 Vrbl 7 16.09 A Few Clouds FEW060 15.6 1.1 38% 76.05 1013.3
07 16:53 Calm 16.09 A Few Clouds FEW060 16.1 1.7 38% 76 1012.6
07 15:53 Vrbl 7 16.09 Fair CLR 17.2 3.3 40% 76 1012.7
07 14:53 Vrbl 11 16.09 Partly Cloudy SCT049 16.7 4.4 44% 76.02 1013.0
07 13:53 Calm 16.09 Partly Cloudy SCT047 15.6 5 15.6 8.9 50% 76.07 1013.5
07 12:53 Vrbl 9 16.09 Overcast OVC049 13.9 5.6 58% 76.1 1014.1
07 11:53 Vrbl 6 16.09 Overcast FEW034 OVC044 13.9 5.6 58% 76.12 1014.3
07 10:53 Calm 16.09 Overcast BKN031 OVC039 11.7 6.1 69% 76.1 1014.3
07 09:53 Calm 16.09 Mostly Cloudy BKN048 11.7 5.6 66% 76.12 1014.4
07 08:53 Calm 16.09 Overcast OVC045 10 6.7 80% 76.12 1014.7
Date Time (edt) Wind (kph) Vis. (km) Weather Sky Cond. Air Dwpt Max. Min. Relative Humidity Wind Chill (°C) Heat Index (°C) altimeter (cm) sea level (mb) 1 hr 3 hr 6 hr
6 hour
Temperature (ºC) Pressure Precipitation (cm)